Time;durP1;ratioP1;P1;durP2;ratioP2;P2;SDS_P1;SDS_P2;PMS_P1;PMS_P2;Temp;Humidity;BMP_temperature;BMP_pressure;BME280_temperature;BME280_humidity;BME280_pressure;Samples;Min_cycle;Max_cycle;Signal;HPM_P1;HPM_P2
2021/10/23 04:02:42;;;;;;;5.20;1.95;;;6.30;99.90;;;;;;4912251;29;20225;-69
2021/10/23 04:05:09;;;;;;;8.75;1.90;;;6.20;99.90;;;;;;4914302;29;20207;-69
2021/10/23 04:07:36;;;;;;;6.63;1.58;;;6.20;99.90;;;;;;4895802;29;20563;-69
2021/10/23 04:10:03;;;;;;;5.50;2.05;;;6.20;99.90;;;;;;4899933;29;20211;-69
2021/10/23 04:12:30;;;;;;;4.63;2.22;;;6.10;99.90;;;;;;4894821;29;20739;-69
2021/10/23 04:14:57;;;;;;;3.05;1.45;;;6.10;99.90;;;;;;4913178;29;20374;-69
2021/10/23 04:17:24;;;;;;;6.95;2.00;;;6.10;99.90;;;;;;4914778;29;20218;-68
2021/10/23 04:19:52;;;;;;;3.88;1.50;;;6.10;99.90;;;;;;4913976;29;20234;-68
2021/10/23 04:22:18;;;;;;;7.63;2.10;;;6.00;99.90;;;;;;4914308;29;20310;-68
2021/10/23 04:24:47;;;;;;;4.35;1.58;;;6.00;99.90;;;;;;4914073;29;20210;-68
2021/10/23 04:27:13;;;;;;;3.22;1.85;;;6.00;99.90;;;;;;4913861;29;20210;-68
2021/10/23 04:29:40;;;;;;;4.18;1.55;;;6.00;99.90;;;;;;4913537;29;20242;-68
2021/10/23 04:32:07;;;;;;;7.10;1.83;;;6.00;99.90;;;;;;4914282;29;20701;-68
2021/10/23 04:34:36;;;;;;;6.78;1.80;;;6.00;99.90;;;;;;4914222;29;20237;-68
2021/10/23 04:37:04;;;;;;;3.88;1.75;;;6.00;99.90;;;;;;4913902;29;20309;-68
2021/10/23 04:39:31;;;;;;;7.13;2.00;;;6.00;99.90;;;;;;4913975;29;20227;-68
2021/10/23 04:41:58;;;;;;;10.45;1.55;;;6.10;99.90;;;;;;4913614;29;20278;-68
2021/10/23 04:44:24;;;;;;;17.17;2.50;;;6.10;99.90;;;;;;4913814;29;20214;-68
2021/10/23 04:46:51;;;;;;;1.90;1.40;;;6.10;99.90;;;;;;4914353;29;20274;-68
2021/10/23 04:49:18;;;;;;;4.53;1.58;;;6.20;99.90;;;;;;4916951;29;20675;-69
2021/10/23 04:51:44;;;;;;;1.95;1.52;;;6.20;99.90;;;;;;4917165;29;20574;-68
2021/10/23 04:54:13;;;;;;;6.30;2.20;;;6.20;99.90;;;;;;4916797;29;20632;-67
2021/10/23 04:56:39;;;;;;;9.98;2.00;;;6.20;99.90;;;;;;4904524;29;20208;-68
2021/10/23 04:59:06;;;;;;;7.00;2.60;;;6.20;99.90;;;;;;4910690;29;20206;-68
2021/10/23 05:01:33;;;;;;;12.82;2.78;;;6.20;99.90;;;;;;4926769;29;20241;-68
2021/10/23 05:03:59;;;;;;;4.03;1.67;;;6.10;99.90;;;;;;4935498;29;20257;-68
2021/10/23 05:06:26;;;;;;;7.05;1.50;;;6.10;99.90;;;;;;4935759;29;20269;-68
2021/10/23 05:08:53;;;;;;;4.88;2.80;;;6.10;99.90;;;;;;4935384;29;20277;-69
2021/10/23 05:11:21;;;;;;;4.63;1.80;;;6.10;99.90;;;;;;4935172;29;20232;-67
2021/10/23 05:13:47;;;;;;;3.38;1.55;;;6.00;99.90;;;;;;4935273;29;20206;-68
2021/10/23 05:16:14;;;;;;;4.22;1.77;;;6.00;99.90;;;;;;4935417;29;20206;-68
2021/10/23 05:18:40;;;;;;;2.65;1.15;;;6.00;99.90;;;;;;4935646;29;20273;-68
2021/10/23 05:21:07;;;;;;;2.33;1.75;;;6.00;99.90;;;;;;4935343;29;20305;-69
2021/10/23 05:23:34;;;;;;;3.13;1.58;;;5.90;99.90;;;;;;4935139;29;20213;-69
2021/10/23 05:26:00;;;;;;;6.68;1.73;;;5.90;99.90;;;;;;4934693;29;20643;-69
2021/10/23 05:28:28;;;;;;;9.38;1.60;;;5.90;99.90;;;;;;4935235;29;20213;-69
2021/10/23 05:30:55;;;;;;;6.03;2.25;;;5.90;99.90;;;;;;4935360;29;20226;-69
2021/10/23 05:33:22;;;;;;;9.80;2.50;;;5.90;99.90;;;;;;4935321;29;20210;-69
2021/10/23 05:35:48;;;;;;;4.30;2.25;;;5.90;99.90;;;;;;4934956;29;20264;-69
2021/10/23 05:38:15;;;;;;;7.13;2.63;;;6.00;99.90;;;;;;4934873;29;20202;-70
2021/10/23 05:40:42;;;;;;;2.28;2.17;;;6.00;99.90;;;;;;4935280;29;20293;-69
2021/10/23 05:43:08;;;;;;;9.57;2.58;;;6.00;99.90;;;;;;4934889;29;20339;-69
2021/10/23 05:45:36;;;;;;;2.40;2.03;;;6.10;99.90;;;;;;4921981;29;20257;-68
2021/10/23 05:48:03;;;;;;;4.35;2.40;;;6.10;99.90;;;;;;4929732;29;20268;-69
2021/10/23 05:50:30;;;;;;;5.40;2.30;;;6.20;99.90;;;;;;4934952;29;20636;-69
2021/10/23 05:52:57;;;;;;;8.80;2.67;;;6.20;99.90;;;;;;4934603;29;20210;-69
2021/10/23 05:55:24;;;;;;;6.45;1.90;;;6.20;99.90;;;;;;4935113;29;20232;-70
2021/10/23 05:57:51;;;;;;;3.00;1.85;;;6.20;99.90;;;;;;4934209;29;20670;-69
2021/10/23 06:00:18;;;;;;;8.20;2.05;;;6.20;99.90;;;;;;4934227;29;20233;-69
2021/10/23 06:02:47;;;;;;;6.68;2.28;;;6.30;99.90;;;;;;4935260;29;20303;-69
2021/10/23 06:05:14;;;;;;;5.05;2.90;;;6.20;99.90;;;;;;4934431;29;20209;-69
2021/10/23 06:07:43;;;;;;;4.80;2.10;;;6.30;99.90;;;;;;4934872;29;20225;-69
2021/10/23 06:10:12;;;;;;;9.85;3.72;;;6.30;99.90;;;;;;4934588;29;20846;-68
2021/10/23 06:12:39;;;;;;;5.90;3.20;;;6.30;99.90;;;;;;4934482;29;20206;-68
2021/10/23 06:15:07;;;;;;;5.85;3.47;;;6.20;99.90;;;;;;4934126;29;20198;-68
2021/10/23 06:17:34;;;;;;;4.88;2.65;;;6.30;99.90;;;;;;4934555;29;20217;-70
2021/10/23 06:20:03;;;;;;;5.93;2.72;;;6.30;99.90;;;;;;4934255;29;20646;-68
2021/10/23 06:22:30;;;;;;;4.53;2.10;;;6.20;99.90;;;;;;4934256;29;20293;-68
2021/10/23 06:24:57;;;;;;;9.23;2.83;;;6.20;99.90;;;;;;4934354;29;20214;-70
2021/10/23 06:27:24;;;;;;;9.15;2.85;;;6.20;99.90;;;;;;4934360;29;20240;-69
2021/10/23 06:29:50;;;;;;;6.55;2.28;;;6.10;99.90;;;;;;4934004;29;20216;-69
2021/10/23 06:32:17;;;;;;;4.75;1.73;;;6.10;99.90;;;;;;4934304;29;20575;-69
2021/10/23 06:34:43;;;;;;;3.95;1.73;;;6.10;99.90;;;;;;4923899;29;20214;-68
2021/10/23 06:37:12;;;;;;;5.65;2.00;;;6.10;99.90;;;;;;4932416;29;20206;-68
2021/10/23 06:39:39;;;;;;;7.78;2.83;;;6.10;99.90;;;;;;4934444;29;20210;-70
2021/10/23 06:42:06;;;;;;;5.68;1.85;;;6.10;99.90;;;;;;4933865;29;20614;-70
2021/10/23 06:44:33;;;;;;;7.88;1.77;;;6.10;99.90;;;;;;4933814;29;20227;-70
2021/10/23 06:46:59;;;;;;;5.43;1.70;;;6.10;99.90;;;;;;4934163;29;20237;-69
2021/10/23 06:49:26;;;;;;;3.83;1.75;;;6.10;99.90;;;;;;4933941;29;20284;-68
2021/10/23 06:51:53;;;;;;;5.15;2.15;;;6.10;99.90;;;;;;4934138;29;20234;-70
2021/10/23 06:54:21;;;;;;;2.90;2.70;;;6.10;99.90;;;;;;4933616;29;20213;-69
2021/10/23 06:56:47;;;;;;;9.52;2.00;;;6.10;99.90;;;;;;4933681;29;20738;-71
2021/10/23 06:59:14;;;;;;;10.85;2.42;;;6.10;99.90;;;;;;4933166;29;20202;-71
2021/10/23 07:01:41;;;;;;;4.47;2.50;;;6.20;99.90;;;;;;4933584;29;20564;-70
2021/10/23 07:04:07;;;;;;;3.90;2.20;;;6.20;99.90;;;;;;4933360;29;20694;-71
2021/10/23 07:06:34;;;;;;;7.30;2.72;;;6.30;99.90;;;;;;4933873;29;20221;-70
2021/10/23 07:09:01;;;;;;;4.25;1.70;;;6.30;99.90;;;;;;4933263;29;20221;-71
2021/10/23 07:11:29;;;;;;;6.15;1.85;;;6.40;99.90;;;;;;4933073;29;20229;-70
2021/10/23 07:13:55;;;;;;;5.22;2.22;;;6.50;99.90;;;;;;4933174;29;20202;-69
2021/10/23 07:16:22;;;;;;;5.65;2.75;;;6.60;99.90;;;;;;4934219;29;20209;-71
2021/10/23 07:18:49;;;;;;;9.77;2.60;;;6.70;99.90;;;;;;4933169;29;20221;-71
2021/10/23 07:21:15;;;;;;;9.00;2.00;;;6.80;99.90;;;;;;4933504;29;20229;-71
2021/10/23 07:23:42;;;;;;;3.75;2.00;;;6.90;99.90;;;;;;4925095;29;20244;-71
2021/10/23 07:26:09;;;;;;;4.95;2.25;;;6.90;99.90;;;;;;4922108;29;20262;-71
2021/10/23 07:28:37;;;;;;;11.32;1.75;;;7.00;99.90;;;;;;4914629;29;20211;-70
2021/10/23 07:31:03;;;;;;;4.22;1.95;;;7.00;99.90;;;;;;4929041;29;20842;-71
2021/10/23 07:33:30;;;;;;;2.30;2.10;;;7.00;99.90;;;;;;4933265;29;20648;-70
2021/10/23 07:35:57;;;;;;;5.70;2.90;;;7.00;99.90;;;;;;4933044;29;20214;-70
2021/10/23 07:38:23;;;;;;;5.25;2.42;;;7.20;99.90;;;;;;4932191;29;20577;-70
2021/10/23 07:40:50;;;;;;;6.85;2.38;;;7.20;99.90;;;;;;4921959;29;20314;-69
2021/10/23 07:43:17;;;;;;;8.07;3.00;;;7.30;99.90;;;;;;4919473;29;20242;-70
2021/10/23 07:45:47;;;;;;;3.65;1.88;;;7.30;99.90;;;;;;4924472;29;20261;-70
2021/10/23 07:48:15;;;;;;;4.32;1.15;;;7.40;99.90;;;;;;4933491;29;20677;-69
2021/10/23 07:50:42;;;;;;;7.97;2.40;;;7.50;99.90;;;;;;4927124;29;20229;-69
2021/10/23 07:53:08;;;;;;;8.02;6.30;;;7.50;99.90;;;;;;4916268;29;20198;-69
2021/10/23 07:55:35;;;;;;;3.50;2.25;;;7.60;99.90;;;;;;4920791;29;20211;-69
2021/10/23 07:58:03;;;;;;;10.75;5.47;;;7.60;99.90;;;;;;4924356;29;20206;-70
2021/10/23 08:00:29;;;;;;;7.15;3.05;;;7.50;99.90;;;;;;4949419;29;20221;-69
2021/10/23 08:02:59;;;;;;;2.58;1.90;;;7.60;99.90;;;;;;4944091;29;20202;-70
2021/10/23 08:05:27;;;;;;;3.50;2.35;;;7.60;99.90;;;;;;4939943;29;20206;-70
2021/10/23 08:07:54;;;;;;;2.35;1.75;;;7.70;99.90;;;;;;4931200;29;20235;-69
2021/10/23 08:10:22;;;;;;;1.70;1.60;;;7.70;99.90;;;;;;4937199;29;20210;-70
2021/10/23 08:12:49;;;;;;;8.32;3.03;;;7.80;99.90;;;;;;4923573;29;20211;-70
2021/10/23 08:15:16;;;;;;;4.18;1.95;;;7.90;99.90;;;;;;4931255;29;20213;-70
2021/10/23 08:17:44;;;;;;;2.25;1.73;;;7.90;99.90;;;;;;4938912;29;20214;-70
2021/10/23 08:20:13;;;;;;;7.03;2.17;;;8.00;99.90;;;;;;4935523;29;20206;-70
2021/10/23 08:22:40;;;;;;;1.42;1.42;;;8.00;99.90;;;;;;4937271;29;20209;-70
2021/10/23 08:25:09;;;;;;;3.10;1.70;;;8.00;99.90;;;;;;4942234;29;20206;-70
2021/10/23 08:27:38;;;;;;;2.10;1.95;;;7.90;99.90;;;;;;4932839;29;20222;-70
2021/10/23 08:30:07;;;;;;;5.90;1.60;;;7.90;99.90;;;;;;4930572;29;20206;-70
2021/10/23 08:32:34;;;;;;;4.97;1.20;;;8.00;99.90;;;;;;4936992;29;20229;-70
2021/10/23 08:35:01;;;;;;;8.40;1.40;;;8.00;99.90;;;;;;4936697;29;20202;-70
2021/10/23 08:37:29;;;;;;;2.20;1.48;;;8.10;99.90;;;;;;4935810;29;20257;-70
2021/10/23 08:39:56;;;;;;;2.80;1.45;;;8.10;99.90;;;;;;4936628;29;20220;-70
2021/10/23 08:42:23;;;;;;;3.60;1.15;;;8.10;99.90;;;;;;4928732;29;20580;-69
2021/10/23 08:44:50;;;;;;;1.83;1.73;;;8.10;99.90;;;;;;4927076;29;20262;-69
2021/10/23 08:47:17;;;;;;;5.25;1.77;;;8.10;99.90;;;;;;4927671;29;20205;-70
2021/10/23 08:49:45;;;;;;;5.03;1.42;;;8.20;99.90;;;;;;4936373;29;20206;-70
2021/10/23 08:52:12;;;;;;;4.55;1.70;;;8.30;99.90;;;;;;4924232;29;20314;-71
2021/10/23 08:54:41;;;;;;;4.07;1.45;;;8.40;99.90;;;;;;4935689;29;20213;-71
2021/10/23 08:57:08;;;;;;;5.70;2.72;;;8.40;99.90;;;;;;4936727;29;20261;-71
2021/10/23 08:59:35;;;;;;;5.28;2.10;;;8.60;99.90;;;;;;4935828;29;20212;-71
2021/10/23 09:02:03;;;;;;;3.88;1.55;;;8.80;99.90;;;;;;4935824;29;20288;-71
2021/10/23 09:04:31;;;;;;;5.75;1.60;;;9.00;99.90;;;;;;4935737;29;20258;-71
2021/10/23 09:07:06;;;;;;;5.40;3.15;;;9.20;99.90;;;;;;4934976;29;20225;-70
2021/10/23 09:09:45;;;;;;;2.55;1.83;;;9.30;99.90;;;;;;4935895;29;20213;-70
2021/10/23 09:12:18;;;;;;;2.38;1.00;;;9.50;99.90;;;;;;4925412;29;20223;-70
2021/10/23 09:14:45;;;;;;;8.90;1.40;;;9.50;99.90;;;;;;4920147;29;20217;-70
2021/10/23 09:17:14;;;;;;;4.97;1.38;;;9.60;99.90;;;;;;4935687;29;20685;-70
2021/10/23 09:19:43;;;;;;;5.15;1.85;;;9.60;99.90;;;;;;4937519;29;20633;-70
2021/10/23 09:22:23;;;;;;;3.50;1.02;;;9.70;99.90;;;;;;4932101;29;20255;-70
2021/10/23 09:24:52;;;;;;;3.85;1.10;;;9.80;99.90;;;;;;4929305;29;20206;-69
2021/10/23 09:27:20;;;;;;;2.60;1.88;;;9.80;99.90;;;;;;4942775;29;20665;-69
2021/10/23 09:29:54;;;;;;;7.78;3.00;;;9.90;99.90;;;;;;4944927;29;20711;-67
2021/10/23 09:32:21;;;;;;;3.75;0.90;;;10.00;99.90;;;;;;4931113;29;20652;-69
2021/10/23 09:34:47;;;;;;;2.67;1.10;;;10.00;99.90;;;;;;4933142;29;20205;-69
2021/10/23 09:37:14;;;;;;;5.22;2.45;;;9.90;99.90;;;;;;4934134;29;20206;-69
2021/10/23 09:39:41;;;;;;;1.95;0.73;;;9.90;99.90;;;;;;4934625;29;20305;-69
2021/10/23 09:42:16;;;;;;;4.03;1.20;;;9.90;99.90;;;;;;4934226;29;20240;-69
2021/10/23 09:45:04;;;;;;;3.95;1.20;;;9.90;99.90;;;;;;4934408;29;20220;-67
2021/10/23 09:47:35;;;;;;;3.65;0.90;;;9.70;99.90;;;;;;4927298;29;20234;-67
2021/10/23 09:50:14;;;;;;;1.15;1.02;;;9.70;99.90;;;;;;4934715;29;20205;-69
2021/10/23 09:53:02;;;;;;;2.72;1.45;;;9.80;99.90;;;;;;4918444;29;20210;-70
2021/10/23 09:55:32;;;;;;;5.38;3.03;;;9.90;99.90;;;;;;4932603;29;20206;-69
2021/10/23 09:58:16;;;;;;;1.75;1.65;;;10.00;99.90;;;;;;4935008;29;20229;-68
2021/10/23 10:00:45;;;;;;;1.30;0.90;;;10.10;99.90;;;;;;4944516;29;20246;-68
2021/10/23 10:03:12;;;;;;;1.95;1.80;;;10.20;99.90;;;;;;4943955;29;20237;-68
2021/10/23 10:05:39;;;;;;;2.38;0.88;;;10.10;99.90;;;;;;4942865;29;20339;-68
2021/10/23 10:08:07;;;;;;;1.85;1.02;;;10.00;99.90;;;;;;4942851;29;20225;-69
2021/10/23 10:10:36;;;;;;;3.83;1.42;;;10.00;99.90;;;;;;4943110;29;20344;-68
2021/10/23 10:13:04;;;;;;;3.22;1.70;;;10.00;99.90;;;;;;4940117;29;20277;-68
2021/10/23 10:15:33;;;;;;;1.50;1.30;;;10.00;99.90;;;;;;4937208;29;20217;-68
2021/10/23 10:18:04;;;;;;;5.10;1.70;;;10.00;99.90;;;;;;4964468;23;20244;-73
2021/10/23 10:20:32;;;;;;;8.18;5.15;;;10.00;99.90;;;;;;4954219;29;20213;-73
2021/10/23 10:22:59;;;;;;;5.00;1.75;;;10.00;99.90;;;;;;4953853;29;20329;-72
2021/10/23 10:25:26;;;;;;;2.25;1.15;;;10.00;99.90;;;;;;4949810;29;20313;-71
2021/10/23 10:27:53;;;;;;;2.17;1.30;;;10.10;99.90;;;;;;4933846;29;20237;-73
2021/10/23 10:30:26;;;;;;;6.13;3.38;;;10.10;99.90;;;;;;4934296;29;20209;-72
2021/10/23 10:32:54;;;;;;;3.92;1.80;;;10.20;99.90;;;;;;4935086;29;20210;-73
2021/10/23 10:38:42;;;;;;;2.25;1.80;;;10.30;99.90;;;;;;4938774;29;20279;-70
2021/10/23 10:44:20;;;;;;;2.08;1.33;;;10.50;99.90;;;;;;4950767;28;20209;-70
2021/10/23 10:47:08;;;;;;;4.40;1.25;;;10.60;99.90;;;;;;4956068;28;20225;-70
2021/10/23 10:49:52;;;;;;;3.70;1.80;;;10.60;99.90;;;;;;4961681;28;20317;-73
2021/10/23 10:52:54;;;;;;;1.83;0.80;;;10.70;99.90;;;;;;4953253;29;20651;-72
2021/10/23 10:55:22;;;;;;;1.88;1.77;;;10.70;99.90;;;;;;4953353;29;20205;-72
2021/10/23 10:58:05;;;;;;;1.95;1.58;;;10.70;99.90;;;;;;4951984;29;20332;-72
2021/10/23 11:01:08;;;;;;;2.65;0.80;;;10.80;99.90;;;;;;4952594;28;20521;-72
2021/10/23 11:03:36;;;;;;;7.72;1.25;;;10.80;99.90;;;;;;4952681;29;20209;-71
2021/10/23 11:06:36;;;;;;;4.15;1.00;;;10.80;99.90;;;;;;4952849;29;20539;-72
2021/10/23 11:09:41;;;;;;;0.98;0.90;;;10.90;99.90;;;;;;4952574;29;20208;-72
2021/10/23 11:12:22;;;;;;;3.22;1.58;;;11.00;99.90;;;;;;4952892;29;20213;-73
2021/10/23 11:14:48;;;;;;;2.90;1.20;;;11.00;99.90;;;;;;4952757;29;20208;-73
2021/10/23 11:17:20;;;;;;;1.27;1.13;;;11.00;99.90;;;;;;4952454;28;20243;-72
2021/10/23 11:19:49;;;;;;;1.08;1.00;;;11.00;99.90;;;;;;4952570;28;20212;-73
2021/10/23 11:22:17;;;;;;;7.53;1.35;;;11.00;99.90;;;;;;4952805;28;20221;-72
2021/10/23 11:24:47;;;;;;;2.28;0.90;;;11.10;99.90;;;;;;4948125;28;20232;-73
2021/10/23 11:27:38;;;;;;;2.25;1.15;;;11.10;99.90;;;;;;4952252;29;20324;-72
2021/10/23 11:30:17;;;;;;;3.08;1.50;;;11.20;99.90;;;;;;4952356;29;20209;-73
2021/10/23 11:32:52;;;;;;;6.18;3.55;;;11.30;99.90;;;;;;4952332;29;20212;-73
2021/10/23 11:35:19;;;;;;;4.95;2.05;;;11.30;99.90;;;;;;4952542;28;20207;-72
2021/10/23 11:37:53;;;;;;;4.22;1.05;;;11.30;99.90;;;;;;4952629;29;20229;-72
2021/10/23 11:40:21;;;;;;;3.03;1.23;;;11.40;99.90;;;;;;4952819;29;20205;-72
2021/10/23 11:42:48;;;;;;;1.60;1.17;;;11.40;99.90;;;;;;4951809;29;20236;-72
2021/10/23 11:45:18;;;;;;;2.42;1.08;;;11.40;99.90;;;;;;4952067;28;20209;-72
2021/10/23 11:47:45;;;;;;;3.28;1.40;;;11.40;99.90;;;;;;4952402;28;20229;-71
2021/10/23 11:50:20;;;;;;;4.70;1.50;;;11.30;99.90;;;;;;4952658;28;20217;-72
2021/10/23 11:52:49;;;;;;;1.85;0.85;;;11.30;99.90;;;;;;4952576;28;20232;-72
2021/10/23 11:55:37;;;;;;;5.22;4.60;;;11.30;99.90;;;;;;4952573;28;20232;-72
2021/10/23 11:58:06;;;;;;;5.65;1.50;;;11.30;99.90;;;;;;4955844;29;20236;-72
2021/10/23 12:00:38;;;;;;;4.75;1.17;;;11.40;99.90;;;;;;4956043;29;20212;-71
2021/10/23 12:03:06;;;;;;;4.05;1.83;;;11.40;99.90;;;;;;4956233;29;20512;-72
2021/10/23 12:05:43;;;;;;;3.63;1.70;;;11.40;99.90;;;;;;4956396;28;20626;-72
2021/10/23 12:08:14;;;;;;;3.70;1.05;;;11.40;99.90;;;;;;4956566;28;20235;-72
2021/10/23 12:11:06;;;;;;;2.75;1.13;;;11.50;99.90;;;;;;4956993;28;20225;-72
2021/10/23 12:13:48;;;;;;;3.40;0.80;;;11.60;99.90;;;;;;4953943;28;20209;-71
2021/10/23 12:16:16;;;;;;;2.10;0.60;;;11.60;99.90;;;;;;4957002;28;20239;-72
2021/10/23 12:18:45;;;;;;;3.15;0.75;;;11.70;99.90;;;;;;4957721;29;20658;-74
2021/10/23 12:21:14;;;;;;;3.13;0.93;;;11.90;99.90;;;;;;4957243;29;20580;-72
2021/10/23 12:23:42;;;;;;;2.92;1.50;;;11.90;99.90;;;;;;4955391;29;20225;-71
2021/10/23 12:26:10;;;;;;;3.33;0.97;;;11.90;99.90;;;;;;4954505;29;20205;-72
2021/10/23 12:28:56;;;;;;;0.70;0.60;;;11.90;99.90;;;;;;4954464;29;20515;-71
2021/10/23 12:31:23;;;;;;;3.77;1.80;;;11.90;99.90;;;;;;4952580;29;20519;-71
2021/10/23 12:34:01;;;;;;;4.77;2.67;;;12.00;99.90;;;;;;4955565;28;20990;-71
2021/10/23 12:36:27;;;;;;;1.85;1.02;;;12.00;99.90;;;;;;4955323;29;20484;-71
2021/10/23 12:38:54;;;;;;;2.78;2.60;;;11.90;99.90;;;;;;4953276;28;20213;-71
2021/10/23 12:41:22;;;;;;;3.03;2.03;;;11.90;99.90;;;;;;4951933;28;20312;-71
2021/10/23 12:43:49;;;;;;;6.22;1.15;;;11.80;99.90;;;;;;4952733;28;20336;-71
2021/10/23 12:46:16;;;;;;;3.45;1.38;;;11.80;99.90;;;;;;4954838;28;20264;-71
2021/10/23 12:48:43;;;;;;;1.20;1.05;;;11.80;99.90;;;;;;4954600;29;20307;-72
2021/10/23 12:51:10;;;;;;;6.10;1.23;;;11.80;99.90;;;;;;4952655;29;20205;-71
2021/10/23 12:53:36;;;;;;;2.80;0.95;;;11.80;99.90;;;;;;4954074;29;20212;-72
2021/10/23 12:56:03;;;;;;;3.13;1.45;;;11.80;99.90;;;;;;4954127;28;20267;-71
2021/10/23 12:58:31;;;;;;;1.38;1.27;;;11.80;99.90;;;;;;4954764;29;20208;-70
2021/10/23 13:00:58;;;;;;;4.53;1.90;;;11.80;99.90;;;;;;4954002;29;20604;-70
2021/10/23 13:03:24;;;;;;;3.72;1.20;;;11.80;99.90;;;;;;4953992;28;20357;-73
2021/10/23 13:05:52;;;;;;;1.88;1.15;;;11.80;99.90;;;;;;4955043;29;20302;-71
2021/10/23 13:08:18;;;;;;;3.53;1.23;;;11.80;99.90;;;;;;4951316;28;20249;-71
2021/10/23 13:10:45;;;;;;;1.80;1.70;;;11.80;99.90;;;;;;4952347;29;20308;-71
2021/10/23 13:13:12;;;;;;;2.15;1.25;;;11.90;99.90;;;;;;4947464;29;20216;-71
2021/10/23 13:15:40;;;;;;;1.02;0.68;;;11.90;99.90;;;;;;4954649;28;20608;-74
2021/10/23 13:18:07;;;;;;;2.05;1.10;;;11.90;99.90;;;;;;4954232;28;20312;-71
2021/10/23 13:20:33;;;;;;;1.00;1.00;;;11.90;99.90;;;;;;4954158;29;20292;-71
2021/10/23 13:23:00;;;;;;;1.95;1.20;;;11.90;99.90;;;;;;4951435;29;20729;-71
2021/10/23 13:25:27;;;;;;;0.65;0.50;;;11.90;99.90;;;;;;4952837;28;20216;-71
2021/10/23 13:27:53;;;;;;;0.85;0.75;;;12.00;99.90;;;;;;4947497;29;20277;-71
2021/10/23 13:30:20;;;;;;;2.10;0.77;;;12.00;99.90;;;;;;4954567;29;20213;-71
2021/10/23 13:32:48;;;;;;;2.80;0.77;;;12.00;99.90;;;;;;4935741;29;20206;-71
2021/10/23 13:35:15;;;;;;;2.95;1.45;;;12.00;99.90;;;;;;4935416;29;20581;-71
2021/10/23 13:37:42;;;;;;;5.90;0.70;;;12.00;99.90;;;;;;4952689;29;20229;-71
2021/10/23 13:40:09;;;;;;;2.85;0.90;;;11.90;99.90;;;;;;4954890;29;20216;-71
2021/10/23 13:42:36;;;;;;;7.05;1.30;;;11.90;99.90;;;;;;4953668;29;20248;-71
2021/10/23 13:45:04;;;;;;;1.88;0.90;;;11.90;99.90;;;;;;4954073;29;20347;-70
2021/10/23 13:47:30;;;;;;;3.25;1.60;;;11.90;99.90;;;;;;4953981;29;20232;-71
2021/10/23 13:49:58;;;;;;;1.20;0.77;;;11.90;99.90;;;;;;4953867;29;20209;-70
2021/10/23 13:52:26;;;;;;;3.65;0.90;;;11.80;99.90;;;;;;4953799;28;20198;-71
2021/10/23 13:54:53;;;;;;;5.82;1.02;;;11.90;99.90;;;;;;4953463;29;20201;-70
2021/10/23 13:57:20;;;;;;;5.25;3.25;;;11.80;99.90;;;;;;4951167;28;20623;-71
2021/10/23 13:59:46;;;;;;;1.05;1.05;;;11.80;99.90;;;;;;4953300;28;20220;-72
2021/10/23 14:02:13;;;;;;;3.28;1.35;;;11.90;99.90;;;;;;4953868;29;20210;-72
2021/10/23 14:04:40;;;;;;;4.78;1.08;;;11.90;99.90;;;;;;4953536;29;20268;-72
2021/10/23 14:07:08;;;;;;;6.07;1.50;;;11.80;99.90;;;;;;4952591;29;20221;-71
2021/10/23 14:09:34;;;;;;;1.52;1.08;;;11.80;99.90;;;;;;4953460;28;20209;-72
2021/10/23 14:12:01;;;;;;;1.85;1.60;;;11.80;99.90;;;;;;4953037;29;20216;-71
2021/10/23 14:14:28;;;;;;;1.95;1.40;;;11.80;99.90;;;;;;4951585;28;20213;-72
2021/10/23 14:16:54;;;;;;;1.10;1.00;;;11.80;99.90;;;;;;4952624;29;20600;-71
2021/10/23 14:19:21;;;;;;;2.80;0.88;;;11.80;99.90;;;;;;4951324;28;20469;-72
2021/10/23 14:21:48;;;;;;;2.27;0.93;;;11.80;99.90;;;;;;4950994;28;20209;-71
2021/10/23 14:24:16;;;;;;;2.85;0.98;;;11.80;99.90;;;;;;4953727;28;20489;-70
2021/10/23 14:26:44;;;;;;;3.55;0.82;;;11.70;99.90;;;;;;4952298;29;20232;-71
2021/10/23 14:29:11;;;;;;;2.35;1.50;;;11.70;99.90;;;;;;4953259;28;20204;-71
2021/10/23 14:31:37;;;;;;;2.73;1.20;;;11.70;99.90;;;;;;4952069;28;20464;-72
2021/10/23 14:34:04;;;;;;;3.50;1.50;;;11.70;99.90;;;;;;4954263;29;20488;-71
2021/10/23 14:36:31;;;;;;;1.88;1.13;;;11.70;99.90;;;;;;4953768;29;20596;-71
2021/10/23 14:38:59;;;;;;;1.05;1.05;;;11.70;99.90;;;;;;4953457;29;20212;-71
2021/10/23 14:41:27;;;;;;;2.78;1.17;;;11.60;99.90;;;;;;4953241;29;20206;-72
2021/10/23 14:43:54;;;;;;;4.72;1.35;;;11.60;99.90;;;;;;4953293;29;20236;-71
2021/10/23 14:46:21;;;;;;;3.17;0.95;;;11.50;99.90;;;;;;4952775;28;20623;-71
2021/10/23 14:48:48;;;;;;;1.38;1.00;;;11.50;99.90;;;;;;4953362;29;20217;-71
2021/10/23 14:51:15;;;;;;;3.95;2.85;;;11.50;99.90;;;;;;4952830;29;20213;-71
2021/10/23 14:53:42;;;;;;;1.30;1.20;;;11.50;99.90;;;;;;4951848;28;20280;-71
2021/10/23 14:56:09;;;;;;;3.50;3.20;;;11.40;99.90;;;;;;4951054;28;20539;-72
2021/10/23 14:58:39;;;;;;;2.03;1.10;;;11.40;99.90;;;;;;4951643;28;20252;-72
2021/10/23 15:01:05;;;;;;;5.32;1.30;;;11.40;99.90;;;;;;4953322;28;20678;-71
2021/10/23 15:03:32;;;;;;;2.22;2.08;;;11.40;99.90;;;;;;4959574;28;20229;-72
2021/10/23 15:05:59;;;;;;;2.90;1.80;;;11.40;99.90;;;;;;4955911;28;20206;-71
2021/10/23 15:08:25;;;;;;;1.50;1.40;;;11.40;99.90;;;;;;4956086;28;20205;-70
2021/10/23 15:10:52;;;;;;;6.22;1.35;;;11.40;99.90;;;;;;4954568;28;20655;-72
2021/10/23 15:13:19;;;;;;;4.28;1.33;;;11.40;99.90;;;;;;4959780;28;20223;-71
2021/10/23 15:15:47;;;;;;;2.20;1.58;;;11.50;99.90;;;;;;4956891;28;20327;-71
2021/10/23 15:18:14;;;;;;;3.33;1.33;;;11.40;99.90;;;;;;4952596;28;20237;-71
2021/10/23 15:20:41;;;;;;;1.52;1.52;;;11.40;99.90;;;;;;4960451;28;20217;-70
2021/10/23 15:23:08;;;;;;;1.75;1.65;;;11.40;99.90;;;;;;4951634;28;20229;-71
2021/10/23 15:25:35;;;;;;;2.83;1.60;;;11.40;99.90;;;;;;4952200;28;20832;-71
2021/10/23 15:28:02;;;;;;;2.80;2.60;;;11.40;99.90;;;;;;4951798;29;20315;-71
2021/10/23 15:30:29;;;;;;;6.72;4.63;;;11.30;99.90;;;;;;4959408;28;20229;-71
2021/10/23 15:32:57;;;;;;;2.70;1.80;;;11.30;99.90;;;;;;4958445;28;20201;-71
2021/10/23 15:35:30;;;;;;;4.43;1.42;;;11.20;99.90;;;;;;4952603;29;20212;-70
2021/10/23 15:37:57;;;;;;;2.75;1.38;;;11.20;99.90;;;;;;4951340;29;20225;-71
2021/10/23 15:40:32;;;;;;;2.15;1.40;;;11.10;99.90;;;;;;4952045;29;20236;-72
2021/10/23 15:42:59;;;;;;;2.17;1.30;;;11.10;99.90;;;;;;4951963;29;20283;-71
2021/10/23 15:45:26;;;;;;;1.70;1.52;;;11.00;99.90;;;;;;4952146;29;20201;-72
2021/10/23 15:47:53;;;;;;;1.45;1.35;;;11.00;99.90;;;;;;4952238;29;20236;-72
2021/10/23 15:50:21;;;;;;;3.88;3.60;;;10.90;99.90;;;;;;4956557;28;20217;-72
2021/10/23 15:52:47;;;;;;;9.68;6.57;;;10.80;99.90;;;;;;4959011;28;20205;-72
2021/10/23 15:55:14;;;;;;;6.75;4.45;;;10.80;99.90;;;;;;4952720;29;20245;-71
2021/10/23 15:57:41;;;;;;;5.10;4.57;;;10.70;99.90;;;;;;4952106;28;20233;-71
2021/10/23 16:00:10;;;;;;;6.55;3.00;;;10.70;99.90;;;;;;4955027;28;20204;-72
2021/10/23 16:02:36;;;;;;;1.77;1.60;;;10.60;99.90;;;;;;4960993;28;20208;-72
2021/10/23 16:05:03;;;;;;;1.65;1.65;;;10.60;99.90;;;;;;4952454;29;20221;-71
2021/10/23 16:07:31;;;;;;;4.95;3.08;;;10.50;99.90;;;;;;4953113;29;20232;-70
2021/10/23 16:09:58;;;;;;;3.85;1.98;;;10.50;99.90;;;;;;4953427;29;20216;-72
2021/10/23 16:12:25;;;;;;;1.75;1.23;;;10.40;99.90;;;;;;4952323;29;20208;-72
2021/10/23 16:14:51;;;;;;;1.77;1.67;;;10.40;99.90;;;;;;4959053;28;20213;-71
2021/10/23 16:17:18;;;;;;;4.45;3.92;;;10.30;99.90;;;;;;4966463;28;20311;-72
2021/10/23 16:19:45;;;;;;;10.65;9.10;;;10.30;99.90;;;;;;4968307;28;20216;-72
2021/10/23 16:22:12;;;;;;;5.28;3.58;;;10.30;99.90;;;;;;4962496;28;20206;-72
2021/10/23 16:24:40;;;;;;;4.10;2.20;;;10.30;99.90;;;;;;4964874;28;20294;-72
2021/10/23 16:27:07;;;;;;;8.45;2.20;;;10.30;99.90;;;;;;4963466;29;20316;-71
2021/10/23 16:29:33;;;;;;;6.10;2.28;;;10.30;99.90;;;;;;4961929;28;20221;-72
2021/10/23 16:32:00;;;;;;;3.00;2.25;;;10.30;99.90;;;;;;4958353;28;20644;-73
2021/10/23 16:34:27;;;;;;;3.70;3.03;;;10.20;99.90;;;;;;4951769;28;20205;-73
2021/10/23 16:36:53;;;;;;;7.53;3.25;;;10.20;99.90;;;;;;4951607;28;20592;-73
2021/10/23 16:39:20;;;;;;;3.60;2.78;;;10.20;99.90;;;;;;4949020;28;20217;-73
2021/10/23 16:41:48;;;;;;;3.30;3.20;;;10.20;99.90;;;;;;4946009;28;20280;-73
2021/10/23 16:44:16;;;;;;;4.68;3.13;;;10.20;99.90;;;;;;4951484;28;20226;-73
2021/10/23 16:46:43;;;;;;;3.55;3.20;;;10.20;99.90;;;;;;4952033;28;20686;-74
2021/10/23 16:49:09;;;;;;;2.63;2.42;;;10.20;99.90;;;;;;4948090;29;20559;-74
2021/10/23 16:51:39;;;;;;;4.00;2.90;;;10.20;99.90;;;;;;4947429;28;20272;-73
2021/10/23 16:54:06;;;;;;;8.43;7.63;;;10.10;99.90;;;;;;4943096;29;20746;-74
2021/10/23 16:56:33;;;;;;;9.45;6.85;;;10.20;99.90;;;;;;4950172;29;20220;-73
2021/10/23 16:59:01;;;;;;;12.30;9.88;;;10.10;99.90;;;;;;4957745;28;20210;-73
2021/10/23 17:01:28;;;;;;;3.97;3.50;;;10.10;99.90;;;;;;4950209;28;20218;-73
2021/10/23 17:03:54;;;;;;;2.97;2.78;;;10.10;99.90;;;;;;4950148;28;20221;-74
2021/10/23 17:06:21;;;;;;;8.18;6.70;;;10.10;99.90;;;;;;4953836;28;20244;-73